OICK  Khoram Abad Airport

Add Bookmark

Iran

Status IATA
Operational KHD
Latitude Longitude
33° 26' 7" N 48° 16' 58" E
33.435398 48.282902
Local (DST + 5) UTC (GMT + 4)
Aug 23, 2014 03:55 Aug 23, 2014 11:25
Sunrise-Sunset Local UTC
Begin Civil Twilight 06:17 01:47
Sunrise 06:43 02:13
Sunset 07:55 15:25
End Civil Twilight 08:21 15:51

Current Weather

METAR Observed VFR
OICK 231100Z 14012KT 9999 FEW035CB SCT040TCU FEW080 36/00 Q1010 Sat, Aug 23, 2014 @ 11:00 UTC
(25 Minutes ago)
Visual Flight Rules
Wind Visibility Clouds Conditions
140° at 12 knots (22 kph) 10 km or more
  • Few at 3,500' AGL
  • Scattered at 4,000' AGL
  • Few at 8,000' AGL
  • No significant weather
Temperatures Readings Precipitation
Current Temp 36°C (97°F)
Dewpoint 0°C (32°F)
Humidity 10%
Altimeter 29.82"Hg
Sea Level Pressure 1010mb
Field Elevation 3789.37'
None Recorded

Additional weather within a 92.6km radius of OICK

Map ICAO Location
OICJ 67.2km N (040°)

24 Hour Weather History

Loading
-

24 Hour Weather Graphs

Loading
-

CheckWX.com is intended as a tool to help pilots better visualize weather data. It is not intended as a substitute for an official weather briefing obtained from a Flight Service Station. CheckWX.com does not meet the FAA requirements for an official pre-flight weather briefing. Therefore, it's important that pilots still call and obtain an official FSS pre-flight weather briefing.